»·PEaware :: SKW24 KDEN-KEGE

SKW24 :: KDEN-KEGE

FLIGHT INFORMATION

Flight Status: Arrived
Operator:
SkyWest Airlines
More flights by this operator :: More flights under this callsign
Pilot: Nathan P. (3026)
Aircraft: BRITISH AERO BAe-4100 JETSTREAM 41
(JS41)
More flights by this aircraft type
Origin: KDEN Denver Intl
United States
Destination: KEGE Eagle Co Regl
United States
More flights between these airports :: More routes between these airports
Route: +
File this flight plan on PilotEdge
Remarks:
Altitude:
(Current/Filed)
0ft
Speed:
(Current/Filed)
0kts
Departed: 07-Nov-19 01:38 PM
Arrived: 07-Nov-19 02:11 PM
Distance/Time
Traveled:
105nm/0:33
Distance/Time
To Go:
Arrived

Flight Plot

Page will automatically refresh every two minutes.

Flight plan parsing failed; only flown route is shown


Map Options




Map Legend


Flown Route
Filed Route
Departure Airport
Arrival Airport
Navaid (VOR, NDB)
Fix

Horizontal Profiles

Position Reports

Time Latitude Longitude Heading Altitude Ground
Speed
07-Nov-19 13:11 39.859478 -104.665751 180 5436ft 0kts
07-Nov-19 13:12 39.859478 -104.665751 180 5436ft 0kts
07-Nov-19 13:13 39.859478 -104.665751 180 5436ft 0kts
07-Nov-19 13:14 39.859478 -104.665751 180 5436ft 0kts
07-Nov-19 13:15 39.859478 -104.665751 180 5436ft 0kts
07-Nov-19 13:16 39.859478 -104.665751 180 5436ft 0kts
07-Nov-19 13:17 39.859478 -104.665751 180 5436ft 0kts
07-Nov-19 13:18 39.859478 -104.665751 180 5436ft 0kts
07-Nov-19 13:19 39.859478 -104.665751 180 5436ft 0kts
07-Nov-19 13:20 39.859478 -104.665751 180 5436ft 0kts
07-Nov-19 13:21 39.859478 -104.665751 180 5436ft 0kts
07-Nov-19 13:22 39.859478 -104.665751 180 5436ft 0kts
07-Nov-19 13:23 39.859478 -104.665751 180 5436ft 0kts
07-Nov-19 13:24 39.859478 -104.665751 180 5436ft 0kts
07-Nov-19 13:25 39.859478 -104.665751 180 5436ft 0kts
07-Nov-19 13:26 39.859478 -104.665751 180 5436ft 0kts
07-Nov-19 13:27 39.859479 -104.665751 180 5436ft 0kts
07-Nov-19 13:28 39.859395 -104.665757 185 5436ft 1kts
07-Nov-19 13:29 39.859009 -104.664873 1 5436ft 11kts
07-Nov-19 13:30 39.860209 -104.663557 86 5436ft 0kts
07-Nov-19 13:32 39.860626 -104.663447 4 5436ft 8kts
07-Nov-19 13:33 39.863415 -104.662283 358 5436ft 21kts
07-Nov-19 13:34 39.868044 -104.662215 1 5436ft 18kts
07-Nov-19 13:35 39.871051 -104.662188 1 5436ft 20kts
07-Nov-19 13:36 39.876462 -104.662090 0 5436ft 0kts
07-Nov-19 13:37 39.876941 -104.662101 1 5436ft 12kts
07-Nov-19 13:38 39.877583 -104.654466 88 5436ft 95kts
07-Nov-19 13:39 39.880280 -104.600804 65 6126ft 177kts
07-Nov-19 13:40 39.928599 -104.597431 343 7342ft 203kts
07-Nov-19 13:41 39.976630 -104.633273 281 8546ft 214kts
07-Nov-19 13:42 39.959248 -104.706450 254 9775ft 213kts
07-Nov-19 13:43 39.947729 -104.782075 261 10974ft 210kts
07-Nov-19 13:44 39.937779 -104.856108 262 12141ft 204kts
07-Nov-19 13:45 39.928076 -104.927940 262 13324ft 199kts
07-Nov-19 13:46 39.918533 -104.998301 262 14507ft 196kts
07-Nov-19 13:47 39.909004 -105.068228 262 15590ft 198kts
07-Nov-19 13:48 39.899187 -105.139945 262 16411ft 203kts
07-Nov-19 13:48 39.890413 -105.203882 262 16507ft 225kts
07-Nov-19 13:50 39.876888 -105.301622 262 16508ft 243kts
07-Nov-19 13:51 39.864403 -105.391352 261 16515ft 262kts
07-Nov-19 13:51 39.853228 -105.471202 262 16541ft 274kts
07-Nov-19 13:53 39.836965 -105.586606 261 16574ft 280kts
07-Nov-19 13:54 39.822768 -105.686679 261 16622ft 282kts
07-Nov-19 13:54 39.810726 -105.770989 261 16618ft 285kts
07-Nov-19 13:55 39.796164 -105.872486 261 16622ft 286kts
07-Nov-19 13:57 39.779007 -105.991129 261 16617ft 285kts
07-Nov-19 13:57 39.766743 -106.075459 261 16605ft 284kts
07-Nov-19 13:58 39.752029 -106.175995 261 16589ft 283kts
07-Nov-19 13:59 39.737546 -106.274200 261 16443ft 257kts
07-Nov-19 14:00 39.724685 -106.361375 261 15252ft 234kts
07-Nov-19 14:01 39.710800 -106.440500 261 13765ft 223kts
07-Nov-19 14:02 39.700025 -106.518482 260 12545ft 203kts
07-Nov-19 14:03 39.690698 -106.583662 260 12528ft 171kts
07-Nov-19 14:04 39.681544 -106.646349 260 11634ft 163kts
07-Nov-19 14:05 39.672905 -106.705752 260 10330ft 172kts
07-Nov-19 14:06 39.663900 -106.766792 259 9177ft 169kts
07-Nov-19 14:07 39.655122 -106.826253 258 8022ft 163kts
07-Nov-19 14:08 39.646813 -106.879488 258 6992ft 139kts
07-Nov-19 14:09 39.642175 -106.921084 264 6520ft 65kts
07-Nov-19 14:10 39.641031 -106.921629 79 6520ft 11kts
07-Nov-19 14:11 39.641539 -106.916968 84 6520ft 12kts
07-Nov-19 14:12 39.640566 -106.915456 171 6520ft 0kts
07-Nov-19 14:13 39.640564 -106.915456 171 6520ft 0kts
07-Nov-19 14:14 39.640564 -106.915456 171 6520ft 0kts
07-Nov-19 14:15 39.640564 -106.915456 171 6520ft 0kts
07-Nov-19 14:16 39.640564 -106.915456 171 6520ft 0kts
07-Nov-19 14:17 39.640564 -106.915456 171 6520ft 0kts
07-Nov-19 14:18 39.640564 -106.915456 171 6520ft 0kts
07-Nov-19 14:19 39.640564 -106.915456 171 6520ft 0kts
07-Nov-19 14:20 39.640564 -106.915456 171 6520ft 0kts
07-Nov-19 14:21 39.640564 -106.915456 171 6520ft 0kts
07-Nov-19 14:22 39.640564 -106.915456 171 6520ft 0kts
07-Nov-19 14:23 39.640564 -106.915456 171 6520ft 0kts
07-Nov-19 14:24 39.640564 -106.915456 171 6520ft 0kts

Navigation Log

Ident Type
Flight plan parsing failed, navigation log unavailable